createdAt,value
2023-02-06T00:01:49.162Z,-2.82
2023-02-06T00:04:16.599Z,-2.87
2023-02-06T00:06:44.017Z,-2.85
2023-02-06T00:09:11.746Z,-2.85
2023-02-06T00:11:38.801Z,-2.87
2023-02-06T00:14:07.271Z,-2.90
2023-02-06T00:16:36.785Z,-2.96
2023-02-06T00:19:04.339Z,-2.92
2023-02-06T00:21:31.955Z,-2.89
2023-02-06T00:24:00.867Z,-2.89
2023-02-06T00:26:28.401Z,-2.79
2023-02-06T00:28:55.447Z,-2.70
2023-02-06T00:31:22.456Z,-2.65
2023-02-06T00:33:52.762Z,-2.69
2023-02-06T00:36:19.723Z,-2.73
2023-02-06T00:38:51.023Z,-2.73
2023-02-06T00:41:17.985Z,-2.74
2023-02-06T00:43:44.921Z,-2.79
2023-02-06T00:46:12.374Z,-2.83
2023-02-06T00:48:39.497Z,-2.90
2023-02-06T00:51:06.904Z,-2.94
2023-02-06T00:53:34.039Z,-2.95
2023-02-06T00:56:00.943Z,-2.94
2023-02-06T00:58:27.886Z,-2.98
2023-02-06T01:00:55.074Z,-3.02
2023-02-06T01:03:22.403Z,-3.02
2023-02-06T01:05:49.580Z,-2.98
2023-02-06T01:08:16.508Z,-3.02
2023-02-06T01:10:44.956Z,-3.04
2023-02-06T01:13:12.537Z,-3.05
2023-02-06T01:15:39.630Z,-3.03
2023-02-06T01:18:06.567Z,-2.98
2023-02-06T01:20:33.640Z,-3.01
2023-02-06T01:23:00.655Z,-3.00
2023-02-06T01:25:27.908Z,-3.00
2023-02-06T01:27:54.760Z,-2.90
2023-02-06T01:30:21.681Z,-2.72
2023-02-06T01:32:48.487Z,-2.73
2023-02-06T01:35:15.358Z,-2.74
2023-02-06T01:37:42.587Z,-2.81
2023-02-06T01:40:14.123Z,-2.79
2023-02-06T01:42:41.250Z,-2.81
2023-02-06T01:45:37.563Z,-2.72
2023-02-06T01:48:10.420Z,-2.79
2023-02-06T01:50:40.154Z,-2.79
2023-02-06T01:53:07.969Z,-2.78
2023-02-06T01:55:41.763Z,-2.73
2023-02-06T01:58:11.469Z,-2.87
2023-02-06T02:00:38.783Z,-2.91
2023-02-06T02:03:05.909Z,-2.96
2023-02-06T02:05:34.296Z,-3.03
2023-02-06T02:08:08.621Z,-3.06
2023-02-06T02:10:35.593Z,-3.10
2023-02-06T02:13:02.521Z,-3.16
2023-02-06T02:15:43.087Z,-3.22
2023-02-06T02:18:45.011Z,-3.26
2023-02-06T02:21:14.765Z,-3.31
2023-02-06T02:24:10.628Z,-3.39
2023-02-06T02:26:51.313Z,-3.33
2023-02-06T02:29:54.969Z,-3.27
2023-02-06T02:32:36.656Z,-3.22
2023-02-06T02:35:06.448Z,-3.24
2023-02-06T02:37:36.010Z,-3.31
2023-02-06T02:40:27.542Z,-3.35
2023-02-06T02:43:13.560Z,-3.37
2023-02-06T02:45:54.995Z,-3.38
2023-02-06T02:48:32.820Z,-3.44
2023-02-06T02:51:01.173Z,-3.51
2023-02-06T02:53:28.252Z,-3.55
2023-02-06T02:55:55.817Z,-3.53
2023-02-06T02:58:28.845Z,-3.52
2023-02-06T03:01:02.352Z,-3.54
2023-02-06T03:03:32.839Z,-3.50
2023-02-06T03:06:27.202Z,-3.51
2023-02-06T03:09:06.332Z,-3.49
2023-02-06T03:11:34.206Z,-3.51
2023-02-06T03:14:20.955Z,-3.51
2023-02-06T03:16:52.655Z,-3.58
2023-02-06T03:19:25.264Z,-3.56
2023-02-06T03:21:52.152Z,-3.54
2023-02-06T03:24:26.640Z,-3.51
2023-02-06T03:26:59.362Z,-3.58
2023-02-06T03:29:28.608Z,-3.60
2023-02-06T03:32:06.121Z,-3.62
2023-02-06T03:34:44.787Z,-3.61
2023-02-06T03:37:12.764Z,-3.61
2023-02-06T03:39:40.858Z,-3.58
2023-02-06T03:42:11.558Z,-3.55
2023-02-06T03:44:43.377Z,-3.56
2023-02-06T03:47:12.223Z,-3.56
2023-02-06T03:49:41.778Z,-3.55
2023-02-06T03:52:12.973Z,-3.50
2023-02-06T03:54:45.570Z,-3.49
2023-02-06T03:57:19.551Z,-3.48
2023-02-06T03:59:47.565Z,-3.35
2023-02-06T04:02:17.107Z,-3.32
2023-02-06T04:04:45.399Z,-3.31
2023-02-06T04:07:23.040Z,-3.32
2023-02-06T04:09:50.309Z,-3.35
2023-02-06T04:12:17.454Z,-3.37
2023-02-06T04:14:44.472Z,-3.33
2023-02-06T04:17:12.074Z,-3.29
2023-02-06T04:19:39.561Z,-3.24
2023-02-06T04:22:07.352Z,-3.25
2023-02-06T04:24:34.545Z,-3.29
2023-02-06T04:27:01.551Z,-3.24
2023-02-06T04:29:28.540Z,-3.24
2023-02-06T04:32:02.112Z,-3.18
2023-02-06T04:34:30.339Z,-3.07
2023-02-06T04:36:57.740Z,-3.09
2023-02-06T04:39:25.421Z,-3.14
2023-02-06T04:41:52.390Z,-3.15
2023-02-06T04:44:19.270Z,-3.20
2023-02-06T04:46:46.346Z,-3.22
2023-02-06T04:49:14.371Z,-3.23
2023-02-06T04:51:42.088Z,-3.19
2023-02-06T04:54:13.096Z,-3.19
2023-02-06T04:56:40.062Z,-3.11
2023-02-06T04:59:07.095Z,-3.07
2023-02-06T05:01:34.092Z,-3.08
2023-02-06T05:04:01.136Z,-3.05
2023-02-06T05:06:30.031Z,-3.09
2023-02-06T05:08:59.504Z,-3.16
2023-02-06T05:11:27.085Z,-3.12
2023-02-06T05:13:53.940Z,-3.04
2023-02-06T05:16:20.603Z,-3.04
2023-02-06T05:18:47.650Z,-3.03
2023-02-06T05:21:15.500Z,-3.04
2023-02-06T05:23:42.417Z,-3.01
2023-02-06T05:26:09.249Z,-2.94
2023-02-06T05:28:36.119Z,-2.91
2023-02-06T05:31:03.824Z,-2.96
2023-02-06T05:33:31.276Z,-2.98
2023-02-06T05:36:07.925Z,-3.05
2023-02-06T05:38:35.092Z,-3.12
2023-02-06T05:41:02.315Z,-3.07
2023-02-06T05:43:31.311Z,-3.09
2023-02-06T05:45:58.263Z,-3.11
2023-02-06T05:48:25.280Z,-3.07
2023-02-06T05:50:52.240Z,-3.20
2023-02-06T05:53:23.303Z,-3.24
2023-02-06T05:55:50.912Z,-3.29
2023-02-06T05:58:18.003Z,-3.18
2023-02-06T06:00:45.260Z,-3.28
2023-02-06T06:03:12.279Z,-3.36
2023-02-06T06:05:39.437Z,-3.42
2023-02-06T06:08:06.423Z,-3.44
2023-02-06T06:10:33.375Z,-3.42
2023-02-06T06:13:00.535Z,-3.44
2023-02-06T06:15:27.486Z,-3.44
2023-02-06T06:17:54.485Z,-3.37
2023-02-06T06:20:21.475Z,-3.24
2023-02-06T06:22:48.317Z,-3.23
2023-02-06T06:25:15.362Z,-3.22
2023-02-06T06:27:42.320Z,-3.24
2023-02-06T06:30:10.290Z,-3.26
2023-02-06T06:32:37.215Z,-3.29
2023-02-06T06:35:04.466Z,-3.34
2023-02-06T06:37:31.526Z,-3.24
2023-02-06T06:39:59.665Z,-3.39
2023-02-06T06:42:26.666Z,-3.25
2023-02-06T06:44:53.668Z,-3.38
2023-02-06T06:47:20.653Z,-3.41
2023-02-06T06:49:47.695Z,-3.36
2023-02-06T06:52:25.040Z,-3.39
2023-02-06T06:54:55.803Z,-3.33
2023-02-06T06:57:22.976Z,-3.24
2023-02-06T06:59:50.146Z,-3.20
2023-02-06T07:02:17.218Z,-3.07
2023-02-06T07:04:44.264Z,-3.02
2023-02-06T07:07:11.508Z,-2.91
2023-02-06T07:09:38.407Z,-2.77
2023-02-06T07:12:05.757Z,-2.66
2023-02-06T07:14:32.612Z,-2.58
2023-02-06T07:17:01.888Z,-2.38
2023-02-06T07:19:28.790Z,-2.26
2023-02-06T07:21:55.626Z,-2.10
2023-02-06T07:24:27.784Z,-1.97
2023-02-06T07:26:57.962Z,-1.85
2023-02-06T07:29:26.494Z,-1.70
2023-02-06T07:31:53.566Z,-1.70
2023-02-06T07:34:20.420Z,-1.62
2023-02-06T07:36:47.798Z,-1.54
2023-02-06T07:39:14.694Z,-1.55
2023-02-06T07:41:41.920Z,-1.39
2023-02-06T07:44:11.284Z,-1.30
2023-02-06T07:46:38.366Z,-1.16
2023-02-06T07:49:06.510Z,-1.05
2023-02-06T07:51:33.583Z,-0.94
2023-02-06T07:54:02.333Z,-0.83
2023-02-06T07:56:29.157Z,-0.72
2023-02-06T07:58:56.139Z,-0.72
2023-02-06T08:01:23.899Z,-0.81
2023-02-06T08:03:52.263Z,-0.62
2023-02-06T08:06:21.486Z,-0.46
2023-02-06T08:08:50.267Z,-0.30
2023-02-06T08:11:19.662Z,-0.07
2023-02-06T08:13:48.312Z,0.05
2023-02-06T08:16:21.941Z,0.09
2023-02-06T08:18:49.233Z,0.20
2023-02-06T08:21:24.132Z,0.21
2023-02-06T08:23:59.135Z,0.28
2023-02-06T08:26:28.516Z,0.26
2023-02-06T08:28:57.235Z,0.41
2023-02-06T08:31:26.137Z,0.49
2023-02-06T08:33:53.431Z,0.56
2023-02-06T08:36:21.311Z,0.67
2023-02-06T08:38:48.964Z,0.80
2023-02-06T08:41:30.864Z,0.68
2023-02-06T08:44:02.420Z,0.72
2023-02-06T08:46:30.984Z,0.84
2023-02-06T08:49:18.021Z,0.97
2023-02-06T08:51:45.856Z,0.86
2023-02-06T08:54:16.172Z,1.02
2023-02-06T08:56:43.590Z,1.20
2023-02-06T08:59:13.342Z,1.27
2023-02-06T09:01:41.052Z,1.30
2023-02-06T09:04:14.149Z,1.49
2023-02-06T09:06:44.263Z,1.62
2023-02-06T09:09:12.740Z,1.72
2023-02-06T09:11:40.259Z,1.81
2023-02-06T09:14:08.820Z,1.91
2023-02-06T09:16:37.849Z,1.56
2023-02-06T09:19:05.259Z,1.63
2023-02-06T09:21:34.814Z,1.80
2023-02-06T09:24:05.315Z,1.59
2023-02-06T09:26:44.789Z,1.13
2023-02-06T09:29:17.140Z,1.19
2023-02-06T09:31:44.258Z,1.49
2023-02-06T09:34:12.834Z,1.51
2023-02-06T09:36:40.160Z,1.50
2023-02-06T09:39:09.065Z,1.43
2023-02-06T09:41:42.508Z,1.29
2023-02-06T09:44:24.291Z,1.43
2023-02-06T09:46:58.307Z,1.64
2023-02-06T09:49:43.548Z,1.78
2023-02-06T09:52:23.437Z,1.61
2023-02-06T09:55:18.621Z,1.67
2023-02-06T09:57:57.282Z,1.56
2023-02-06T10:00:33.202Z,1.59
2023-02-06T10:03:12.846Z,1.62
2023-02-06T10:06:23.280Z,1.50
2023-02-06T10:09:05.079Z,1.40
2023-02-06T10:12:01.228Z,1.44
2023-02-06T10:14:45.498Z,1.70
2023-02-06T10:17:21.851Z,1.99
2023-02-06T10:19:51.527Z,2.24
2023-02-06T10:22:28.300Z,2.23
2023-02-06T10:25:30.369Z,2.30
2023-02-06T10:28:01.448Z,2.56
2023-02-06T10:31:09.958Z,2.58
2023-02-06T10:33:50.997Z,2.89
2023-02-06T10:36:32.354Z,3.09
2023-02-06T10:39:36.178Z,2.40
2023-02-06T10:42:38.460Z,2.46
2023-02-06T10:45:26.929Z,2.83
2023-02-06T10:48:39.307Z,3.04
2023-02-06T10:51:27.559Z,3.08
2023-02-06T10:53:59.905Z,3.36
2023-02-06T10:56:30.684Z,3.25
2023-02-06T10:59:17.396Z,3.26
2023-02-06T11:01:47.550Z,3.04
2023-02-06T11:04:33.989Z,3.62
2023-02-06T11:07:04.545Z,3.82
2023-02-06T11:09:32.355Z,4.04
2023-02-06T11:12:01.068Z,3.53
2023-02-06T11:14:33.287Z,3.13
2023-02-06T11:17:00.805Z,2.67
2023-02-06T11:19:31.156Z,3.01
2023-02-06T11:22:15.476Z,3.25
2023-02-06T11:25:32.127Z,3.39
2023-02-06T11:28:00.903Z,2.83
2023-02-06T11:30:36.863Z,3.07
2023-02-06T11:33:20.277Z,3.25
2023-02-06T11:36:04.493Z,2.80
2023-02-06T11:38:32.617Z,2.59
2023-02-06T11:41:02.410Z,2.70
2023-02-06T11:43:48.967Z,2.02
2023-02-06T11:46:19.771Z,2.12
2023-02-06T11:49:20.871Z,2.18
2023-02-06T11:51:53.004Z,2.13
2023-02-06T11:54:28.448Z,1.94
2023-02-06T11:57:20.269Z,1.94
2023-02-06T11:59:59.587Z,2.46
2023-02-06T12:02:33.360Z,2.46
2023-02-06T12:05:21.948Z,2.46
2023-02-06T12:08:03.883Z,1.94
2023-02-06T12:10:36.171Z,2.24
2023-02-06T12:13:10.758Z,2.46
2023-02-06T12:15:48.574Z,2.25
2023-02-06T12:18:21.795Z,2.20
2023-02-06T12:20:53.398Z,1.91
2023-02-06T12:23:47.702Z,1.90
2023-02-06T12:26:18.211Z,1.93
2023-02-06T12:28:51.920Z,2.10
2023-02-06T12:31:44.210Z,2.27
2023-02-06T12:34:19.459Z,1.97
2023-02-06T12:36:59.238Z,1.67
2023-02-06T12:39:32.129Z,1.63
2023-02-06T12:42:21.091Z,2.08
2023-02-06T12:44:59.470Z,2.21
2023-02-06T12:47:40.747Z,2.22
2023-02-06T12:50:23.514Z,2.09
2023-02-06T12:53:05.107Z,2.04
2023-02-06T12:55:37.180Z,2.02
2023-02-06T12:58:05.357Z,1.82
2023-02-06T13:01:01.204Z,1.80
2023-02-06T13:03:31.548Z,1.85
2023-02-06T13:06:22.066Z,1.88
2023-02-06T13:09:07.931Z,2.08
2023-02-06T13:11:39.374Z,2.18
2023-02-06T13:14:28.040Z,2.20
2023-02-06T13:17:04.979Z,2.05
2023-02-06T13:19:53.187Z,1.87
2023-02-06T13:22:20.355Z,1.68
2023-02-06T13:24:49.715Z,1.66
2023-02-06T13:27:25.186Z,1.96
2023-02-06T13:29:54.273Z,2.02
2023-02-06T13:32:24.628Z,2.00
2023-02-06T13:34:54.291Z,1.92
2023-02-06T13:37:37.938Z,1.87
2023-02-06T13:40:23.350Z,1.89
2023-02-06T13:42:57.299Z,1.81
2023-02-06T13:45:45.119Z,1.78
2023-02-06T13:48:47.358Z,1.74
2023-02-06T13:51:53.118Z,1.47
2023-02-06T13:54:28.831Z,1.45
2023-02-06T13:57:20.723Z,1.55
2023-02-06T14:00:11.080Z,1.59
2023-02-06T14:02:41.313Z,1.67
2023-02-06T14:05:17.185Z,1.67
2023-02-06T14:08:11.058Z,1.80
2023-02-06T14:10:47.593Z,1.84
2023-02-06T14:13:36.201Z,1.75
2023-02-06T14:16:28.539Z,1.66
2023-02-06T14:19:23.032Z,1.60
2023-02-06T14:22:09.728Z,1.62
2023-02-06T14:25:11.929Z,1.61
2023-02-06T14:28:01.522Z,1.63
2023-02-06T14:30:46.697Z,1.56
2023-02-06T14:33:51.738Z,1.53
2023-02-06T14:37:06.827Z,1.53
2023-02-06T14:39:54.944Z,1.58
2023-02-06T14:42:44.250Z,1.62
2023-02-06T14:45:38.603Z,1.66
2023-02-06T14:48:31.281Z,1.62
2023-02-06T14:50:59.688Z,1.61
2023-02-06T14:53:31.501Z,1.69
2023-02-06T14:56:12.663Z,1.66
2023-02-06T14:58:39.784Z,1.76
2023-02-06T15:01:18.631Z,1.62
2023-02-06T15:03:47.443Z,1.60
2023-02-06T15:06:35.310Z,1.61
2023-02-06T15:09:02.598Z,1.61
2023-02-06T15:11:32.985Z,1.61
2023-02-06T15:14:04.413Z,1.57
2023-02-06T15:16:34.233Z,1.57
2023-02-06T15:19:24.793Z,1.53
2023-02-06T15:21:59.578Z,1.40
2023-02-06T15:24:49.153Z,1.30
2023-02-06T15:27:36.956Z,1.21
2023-02-06T15:30:26.902Z,1.21
2023-02-06T15:32:56.653Z,1.11
2023-02-06T15:35:31.750Z,1.12
2023-02-06T15:38:04.583Z,1.03
2023-02-06T15:40:34.559Z,1.03
2023-02-06T15:43:03.227Z,1.00
2023-02-06T15:45:36.932Z,0.94
2023-02-06T15:48:35.122Z,0.82
2023-02-06T15:51:09.030Z,0.79
2023-02-06T15:53:39.388Z,0.80
2023-02-06T15:56:21.311Z,0.82
2023-02-06T15:58:54.226Z,0.79
2023-02-06T16:01:21.608Z,0.67
2023-02-06T16:03:56.571Z,0.58
2023-02-06T16:06:23.464Z,0.52
2023-02-06T16:08:55.380Z,0.40
2023-02-06T16:11:50.838Z,0.35
2023-02-06T16:14:41.715Z,0.21
2023-02-06T16:17:08.767Z,0.12
2023-02-06T16:20:06.965Z,0.10
2023-02-06T16:22:40.329Z,0.10
2023-02-06T16:25:22.678Z,-0.01
2023-02-06T16:27:51.450Z,-0.25
2023-02-06T16:30:33.920Z,-0.50
2023-02-06T16:33:31.292Z,-0.62
2023-02-06T16:35:58.197Z,-0.70
2023-02-06T16:38:25.183Z,-0.81
2023-02-06T16:40:52.662Z,-0.84
2023-02-06T16:43:20.326Z,-0.99
2023-02-06T16:45:48.156Z,-1.05
2023-02-06T16:48:20.220Z,-1.11
2023-02-06T16:50:48.764Z,-1.16
2023-02-06T16:53:34.153Z,-1.28
2023-02-06T16:56:02.336Z,-1.46
2023-02-06T16:58:32.025Z,-1.53
2023-02-06T17:00:59.347Z,-1.62
2023-02-06T17:03:32.802Z,-1.73
2023-02-06T17:06:01.246Z,-1.69
2023-02-06T17:08:28.184Z,-1.75
2023-02-06T17:10:55.007Z,-1.83
2023-02-06T17:13:24.463Z,-1.86
2023-02-06T17:15:56.326Z,-1.88
2023-02-06T17:18:23.772Z,-1.85
2023-02-06T17:20:53.193Z,-1.82
2023-02-06T17:23:20.473Z,-1.80
2023-02-06T17:25:47.508Z,-1.78
2023-02-06T17:28:18.698Z,-1.83
2023-02-06T17:30:46.480Z,-1.85
2023-02-06T17:33:13.445Z,-1.87
2023-02-06T17:35:40.225Z,-2.01
2023-02-06T17:38:09.197Z,-2.06
2023-02-06T17:40:37.844Z,-2.22
2023-02-06T17:43:06.010Z,-2.26
2023-02-06T17:45:35.437Z,-2.53
2023-02-06T17:48:02.603Z,-2.55
2023-02-06T17:50:33.261Z,-2.48
2023-02-06T17:53:00.527Z,-2.50
2023-02-06T17:55:28.858Z,-2.71
2023-02-06T17:58:02.252Z,-2.70
2023-02-06T18:00:29.406Z,-2.59
2023-02-06T18:02:58.614Z,-2.51
2023-02-06T18:05:26.457Z,-2.47
2023-02-06T18:07:53.511Z,-2.51
2023-02-06T18:10:22.763Z,-2.56
2023-02-06T18:12:49.674Z,-2.52
2023-02-06T18:15:17.355Z,-2.57
2023-02-06T18:17:44.590Z,-2.60
2023-02-06T18:20:12.662Z,-2.62
2023-02-06T18:22:42.436Z,-2.62
2023-02-06T18:25:13.242Z,-2.74
2023-02-06T18:27:41.821Z,-2.71
2023-02-06T18:30:11.085Z,-2.69
2023-02-06T18:32:39.130Z,-2.67
2023-02-06T18:35:07.668Z,-2.71
2023-02-06T18:37:35.437Z,-2.69
2023-02-06T18:40:02.862Z,-2.72
2023-02-06T18:42:48.496Z,-2.77
2023-02-06T18:45:15.471Z,-2.83
2023-02-06T18:47:42.624Z,-2.83
2023-02-06T18:50:11.590Z,-2.84
2023-02-06T18:52:42.351Z,-2.89
2023-02-06T18:55:09.769Z,-2.99
2023-02-06T18:57:37.085Z,-3.04
2023-02-06T19:00:12.226Z,-3.21
2023-02-06T19:02:39.112Z,-3.16
2023-02-06T19:05:06.475Z,-3.06
2023-02-06T19:07:33.698Z,-3.02
2023-02-06T19:10:04.394Z,-3.02
2023-02-06T19:12:32.361Z,-3.05
2023-02-06T19:15:00.203Z,-3.25
2023-02-06T19:17:28.243Z,-3.33
2023-02-06T19:19:55.146Z,-3.29
2023-02-06T19:22:24.065Z,-3.28
2023-02-06T19:24:54.124Z,-3.29
2023-02-06T19:27:22.008Z,-3.38
2023-02-06T19:29:49.279Z,-3.34
2023-02-06T19:32:16.275Z,-3.59
2023-02-06T19:34:45.533Z,-3.50
2023-02-06T19:37:13.626Z,-3.38
2023-02-06T19:39:41.470Z,-3.41
2023-02-06T19:42:10.223Z,-3.38
2023-02-06T19:44:37.528Z,-3.29
2023-02-06T19:47:07.782Z,-3.44
2023-02-06T19:49:34.842Z,-3.54
2023-02-06T19:52:02.012Z,-3.67
2023-02-06T19:54:28.959Z,-3.71
2023-02-06T19:56:56.000Z,-3.63
2023-02-06T19:59:28.613Z,-3.67
2023-02-06T20:01:58.605Z,-3.82
2023-02-06T20:04:29.262Z,-3.89
2023-02-06T20:06:56.451Z,-3.76
2023-02-06T20:09:24.468Z,-3.68
2023-02-06T20:11:53.137Z,-3.80
2023-02-06T20:14:20.999Z,-3.87
2023-02-06T20:16:49.482Z,-3.85
2023-02-06T20:19:25.000Z,-3.82
2023-02-06T20:21:57.219Z,-3.78
2023-02-06T20:24:27.688Z,-3.80
2023-02-06T20:26:57.955Z,-3.82
2023-02-06T20:29:31.341Z,-3.83
2023-02-06T20:32:00.564Z,-3.95
2023-02-06T20:34:41.331Z,-4.02
2023-02-06T20:37:08.371Z,-4.02
2023-02-06T20:39:35.377Z,-4.04
2023-02-06T20:42:04.599Z,-4.05
2023-02-06T20:44:31.639Z,-3.97
2023-02-06T20:46:58.437Z,-3.94
2023-02-06T20:49:28.632Z,-4.06
2023-02-06T20:51:58.697Z,-4.11
2023-02-06T20:54:25.987Z,-4.13
2023-02-06T20:56:53.101Z,-4.10
2023-02-06T20:59:20.500Z,-4.07
2023-02-06T21:01:48.065Z,-4.05
2023-02-06T21:04:16.589Z,-4.07
2023-02-06T21:06:44.381Z,-4.13
2023-02-06T21:09:14.884Z,-4.06
2023-02-06T21:11:45.251Z,-4.11
2023-02-06T21:14:13.176Z,-4.11
2023-02-06T21:16:40.661Z,-3.99
2023-02-06T21:19:09.677Z,-3.96
2023-02-06T21:21:37.511Z,-4.05
2023-02-06T21:24:04.902Z,-4.14
2023-02-06T21:26:32.890Z,-4.21
2023-02-06T21:29:00.720Z,-4.26
2023-02-06T21:31:36.815Z,-4.22
2023-02-06T21:34:20.249Z,-4.14
2023-02-06T21:36:50.627Z,-4.15
2023-02-06T21:39:23.245Z,-4.25
2023-02-06T21:41:53.992Z,-4.22
2023-02-06T21:44:23.815Z,-4.19
2023-02-06T21:46:51.570Z,-4.35
2023-02-06T21:49:19.542Z,-4.39
2023-02-06T21:51:46.767Z,-4.41
2023-02-06T21:54:13.602Z,-4.36
2023-02-06T21:56:40.696Z,-4.41
2023-02-06T21:59:08.480Z,-4.55
2023-02-06T22:01:35.905Z,-4.50
2023-02-06T22:04:04.219Z,-4.43
2023-02-06T22:06:32.572Z,-4.39
2023-02-06T22:09:07.746Z,-4.35
2023-02-06T22:11:39.528Z,-4.51
2023-02-06T22:14:10.506Z,-4.68
2023-02-06T22:16:37.622Z,-4.63
2023-02-06T22:19:05.836Z,-4.77
2023-02-06T22:21:33.926Z,-4.82
2023-02-06T22:24:05.580Z,-4.73
2023-02-06T22:26:36.658Z,-4.70
2023-02-06T22:29:04.350Z,-4.66
2023-02-06T22:31:33.235Z,-4.63
2023-02-06T22:34:00.951Z,-4.64
2023-02-06T22:36:30.380Z,-4.80
2023-02-06T22:39:03.000Z,-4.83
2023-02-06T22:41:30.626Z,-4.76
2023-02-06T22:43:57.739Z,-5.01
2023-02-06T22:46:24.602Z,-4.99
2023-02-06T22:48:51.860Z,-5.00
2023-02-06T22:51:19.916Z,-5.03
2023-02-06T22:53:47.200Z,-5.00
2023-02-06T22:56:27.136Z,-4.91
2023-02-06T22:59:00.197Z,-4.94
2023-02-06T23:01:32.149Z,-4.90
2023-02-06T23:04:00.474Z,-4.88
2023-02-06T23:06:28.700Z,-4.96
2023-02-06T23:08:57.186Z,-4.96
2023-02-06T23:11:25.054Z,-4.93
2023-02-06T23:13:57.418Z,-4.96
2023-02-06T23:16:25.164Z,-4.95
2023-02-06T23:18:52.173Z,-5.01
2023-02-06T23:21:21.722Z,-5.02
2023-02-06T23:23:49.041Z,-5.09
2023-02-06T23:26:18.364Z,-4.98
2023-02-06T23:28:45.542Z,-5.05
2023-02-06T23:31:13.312Z,-5.25
2023-02-06T23:33:40.956Z,-5.16
2023-02-06T23:36:18.788Z,-5.12
2023-02-06T23:38:47.342Z,-5.12
2023-02-06T23:41:20.186Z,-5.26
2023-02-06T23:43:52.156Z,-5.26
2023-02-06T23:46:20.669Z,-5.26
2023-02-06T23:48:48.892Z,-5.25
2023-02-06T23:51:17.227Z,-5.19
2023-02-06T23:53:44.371Z,-5.10
2023-02-06T23:56:16.332Z,-5.11
2023-02-06T23:58:43.888Z,-5.09
